S 386 Casilo — OZZP — position and weather

sailwx.info

Track history (hours):
 
Tides and Currents Weather Stations Pressure Air Temp Water Temp Dewpoint Dewpoint Depression Visibility Wind Speed Wind Dir Waves Ship Positions

S 386 Casilo

Last reported at 2018-Jan-21 00:32 UTC. Time now 2018-Jan-21 03:18 UTC.
Position N 58°01' E 009°35'.

Length 24 m.

Type: Fishing. MMSI: 219948000.

Date/timePositionNaut miles runAvg speedWind from/ knotsBaromVisibWave heightAir tempDewpointWater temp
2018-Jan-21 00:32N 58°01' E 009°35'1 8.9
2018-Jan-21 00:23N 58°01' E 009°37'  
2018-Jan-18 15:46N 57°47' E 010°43'2 9.5
2018-Jan-18 15:30N 57°44' E 010°43'4 8.4
2018-Jan-18 15:00N 57°43' E 010°36'0 0.0
2018-Jan-18 10:59N 57°43' E 010°36'0 0.0
2018-Jan-18 10:30N 57°43' E 010°36'0 0.0
2018-Jan-18 10:00N 57°43' E 010°36'0 0.0
2018-Jan-18 09:31N 57°43' E 010°36'0 0.0
2018-Jan-18 09:00N 57°43' E 010°36'3 4.4
2018-Jan-18 08:15N 57°44' E 010°42'2 7.2
2018-Jan-18 08:00N 57°45' E 010°43'4 8.1
2018-Jan-18 07:30N 57°49' E 010°43'4 9.0
2018-Jan-18 07:00N 57°54' E 010°40'4 8.4
2018-Jan-18 06:30N 57°58' E 010°38'4 8.9
2018-Jan-18 06:00N 58°02' E 010°36'  
2018-Jan-12 09:45N 58°09' E 010°37'0 1.0
2018-Jan-12 09:28N 58°09' E 010°38'0 0.7
2018-Jan-12 09:00N 58°10' E 010°38'1 2.1
2018-Jan-12 08:20N 58°11' E 010°36'1 2.1
2018-Jan-12 07:58N 58°11' E 010°35'3 2.0
2018-Jan-12 06:27N 58°13' E 010°30'1 2.0
2018-Jan-12 06:00N 58°13' E 010°28'1 1.9
2018-Jan-12 05:30N 58°13' E 010°26'1 1.9
2018-Jan-12 05:00N 58°13' E 010°25'1 1.9
2018-Jan-12 04:21N 58°13' E 010°22'1 1.9
2018-Jan-12 03:59N 58°13' E 010°21'2 1.9
2018-Jan-12 03:10N 58°13' E 010°18'0 1.8
2018-Jan-12 02:59N 58°13' E 010°17'2 1.9
2018-Jan-12 01:49N 58°12' E 010°13'1 1.9
2018-Jan-12 01:21N 58°12' E 010°12'2 2.0
2018-Jan-12 00:33N 58°11' E 010°09'31 4.0
2018-Jan-11 16:46N 57°46' E 010°44'310.0
2018-Jan-11 16:30N 57°44' E 010°42'4 7.4
2018-Jan-11 16:00N 57°43' E 010°36'0 0.2
2018-Jan-11 15:19N 57°43' E 010°36'0 0.0
2018-Jan-11 15:00N 57°43' E 010°36'0 0.0
2018-Jan-11 14:30N 57°43' E 010°36'0 0.0
2018-Jan-11 14:00N 57°43' E 010°36'0 0.0
2018-Jan-11 13:29N 57°43' E 010°36'0 0.0
2018-Jan-11 13:00N 57°43' E 010°36'0 0.0
2018-Jan-11 12:30N 57°43' E 010°36'0 0.0
2018-Jan-11 11:55N 57°43' E 010°36'0 0.0
2018-Jan-11 11:30N 57°43' E 010°36'0 0.0
2018-Jan-11 10:59N 57°43' E 010°36'3 4.3
2018-Jan-11 10:19N 57°44' E 010°41'2 6.2
2018-Jan-11 10:00N 57°45' E 010°43'3 7.0
2018-Jan-11 09:30N 57°49' E 010°42'3 5.2
2018-Jan-11 09:00N 57°51' E 010°42'2 4.9
2018-Jan-11 08:30N 57°54' E 010°42'2 5.0
2018-Jan-11 08:00N 57°56' E 010°41'3 5.6
2018-Jan-11 07:30N 57°59' E 010°40'4 6.4
2018-Jan-11 06:55N 58°03' E 010°40'  
Track history (hours):
 
Tides and Currents Weather Stations Pressure Air Temp Water Temp Dewpoint Dewpoint Depression Visibility Wind Speed Wind Dir Waves Ship Positions

S 386 Casilo

Last reported at 2018-Jan-21 00:32 UTC. Time now 2018-Jan-21 03:18 UTC.
Position N 58°01' E 009°35'.

Length 24 m.

Type: Fishing. MMSI: 219948000.

Date/timePositionNaut miles runAvg speedWind from/ knotsBaromVisibWave heightAir tempDewpointWater temp
2018-Jan-21 00:32N 58°01' E 009°35'1 8.9
2018-Jan-21 00:23N 58°01' E 009°37'  
2018-Jan-18 15:46N 57°47' E 010°43'2 9.5
2018-Jan-18 15:30N 57°44' E 010°43'4 8.4
2018-Jan-18 15:00N 57°43' E 010°36'0 0.0
2018-Jan-18 10:59N 57°43' E 010°36'0 0.0
2018-Jan-18 10:30N 57°43' E 010°36'0 0.0
2018-Jan-18 10:00N 57°43' E 010°36'0 0.0
2018-Jan-18 09:31N 57°43' E 010°36'0 0.0
2018-Jan-18 09:00N 57°43' E 010°36'3 4.4
2018-Jan-18 08:15N 57°44' E 010°42'2 7.2
2018-Jan-18 08:00N 57°45' E 010°43'4 8.1
2018-Jan-18 07:30N 57°49' E 010°43'4 9.0
2018-Jan-18 07:00N 57°54' E 010°40'4 8.4
2018-Jan-18 06:30N 57°58' E 010°38'4 8.9
2018-Jan-18 06:00N 58°02' E 010°36'  
2018-Jan-12 09:45N 58°09' E 010°37'0 1.0
2018-Jan-12 09:28N 58°09' E 010°38'0 0.7
2018-Jan-12 09:00N 58°10' E 010°38'1 2.1
2018-Jan-12 08:20N 58°11' E 010°36'1 2.1
2018-Jan-12 07:58N 58°11' E 010°35'3 2.0
2018-Jan-12 06:27N 58°13' E 010°30'1 2.0
2018-Jan-12 06:00N 58°13' E 010°28'1 1.9
2018-Jan-12 05:30N 58°13' E 010°26'1 1.9
2018-Jan-12 05:00N 58°13' E 010°25'1 1.9
2018-Jan-12 04:21N 58°13' E 010°22'1 1.9
2018-Jan-12 03:59N 58°13' E 010°21'2 1.9
2018-Jan-12 03:10N 58°13' E 010°18'0 1.8
2018-Jan-12 02:59N 58°13' E 010°17'2 1.9
2018-Jan-12 01:49N 58°12' E 010°13'1 1.9
2018-Jan-12 01:21N 58°12' E 010°12'2 2.0
2018-Jan-12 00:33N 58°11' E 010°09'31 4.0
2018-Jan-11 16:46N 57°46' E 010°44'310.0
2018-Jan-11 16:30N 57°44' E 010°42'4 7.4
2018-Jan-11 16:00N 57°43' E 010°36'0 0.2
2018-Jan-11 15:19N 57°43' E 010°36'0 0.0
2018-Jan-11 15:00N 57°43' E 010°36'0 0.0
2018-Jan-11 14:30N 57°43' E 010°36'0 0.0
2018-Jan-11 14:00N 57°43' E 010°36'0 0.0
2018-Jan-11 13:29N 57°43' E 010°36'0 0.0
2018-Jan-11 13:00N 57°43' E 010°36'0 0.0
2018-Jan-11 12:30N 57°43' E 010°36'0 0.0
2018-Jan-11 11:55N 57°43' E 010°36'0 0.0
2018-Jan-11 11:30N 57°43' E 010°36'0 0.0
2018-Jan-11 10:59N 57°43' E 010°36'3 4.3
2018-Jan-11 10:19N 57°44' E 010°41'2 6.2
2018-Jan-11 10:00N 57°45' E 010°43'3 7.0
2018-Jan-11 09:30N 57°49' E 010°42'3 5.2
2018-Jan-11 09:00N 57°51' E 010°42'2 4.9
2018-Jan-11 08:30N 57°54' E 010°42'2 5.0
2018-Jan-11 08:00N 57°56' E 010°41'3 5.6
2018-Jan-11 07:30N 57°59' E 010°40'4 6.4
2018-Jan-11 06:55N 58°03' E 010°40'  

Dump ship's entire track history